Time;durP1;ratioP1;P1;durP2;ratioP2;P2;SDS_P1;SDS_P2;PMS_P1;PMS_P2;Temp;Humidity;BMP_temperature;BMP_pressure;BME280_temperature;BME280_humidity;BME280_pressure;Samples;Min_cycle;Max_cycle;Signal;HPM_P1;HPM_P2
2022/06/07 00:00:05;;;;;;;15.43;7.13;;;12.70;99.90;;;;;;5075154;28;20293;-81
2022/06/07 00:02:33;;;;;;;13.53;7.67;;;12.70;99.90;;;;;;5092273;28;20040;-80
2022/06/07 00:04:59;;;;;;;16.93;7.20;;;12.70;99.90;;;;;;5092803;28;20282;-80
2022/06/07 00:07:26;;;;;;;16.60;7.80;;;12.80;99.90;;;;;;5092535;28;20335;-81
2022/06/07 00:09:52;;;;;;;11.10;6.90;;;12.70;99.90;;;;;;5092762;28;20041;-80
2022/06/07 00:12:18;;;;;;;11.93;6.83;;;12.70;99.90;;;;;;5092343;28;20741;-80
2022/06/07 00:14:44;;;;;;;18.70;7.57;;;12.80;99.90;;;;;;5075007;28;20396;-81
2022/06/07 00:17:11;;;;;;;14.50;7.60;;;12.80;99.90;;;;;;5092482;28;20097;-80
2022/06/07 00:19:38;;;;;;;19.03;8.50;;;12.70;99.90;;;;;;5092455;28;20298;-80
2022/06/07 00:22:04;;;;;;;14.63;7.67;;;12.70;99.90;;;;;;5092813;28;20371;-81
2022/06/07 00:24:30;;;;;;;11.20;7.00;;;12.70;99.90;;;;;;5092571;28;20282;-80
2022/06/07 00:26:56;;;;;;;15.87;6.80;;;12.70;99.90;;;;;;5096464;28;20301;-81
2022/06/07 00:29:23;;;;;;;13.93;7.67;;;12.70;99.90;;;;;;5095978;28;20040;-80
2022/06/07 00:31:49;;;;;;;11.17;7.00;;;12.70;99.90;;;;;;5096173;28;20051;-81
2022/06/07 00:34:15;;;;;;;15.00;7.83;;;12.80;99.90;;;;;;5078031;28;20438;-77
2022/06/07 00:36:41;;;;;;;12.50;6.73;;;12.80;99.90;;;;;;5090308;28;20060;-81
2022/06/07 00:39:07;;;;;;;10.27;6.77;;;12.80;99.90;;;;;;5075698;28;20481;-81
2022/06/07 00:41:33;;;;;;;11.93;7.37;;;12.80;99.90;;;;;;5075446;28;20755;-80
2022/06/07 00:44:17;;;;;;;12.83;7.37;;;12.70;99.90;;;;;;5075876;28;20290;-81
2022/06/07 00:46:47;;;;;;;13.90;7.33;;;12.80;99.90;;;;;;5075636;28;20473;-80
2022/06/07 00:49:15;;;;;;;12.20;7.27;;;12.70;99.90;;;;;;5075811;28;20623;-81
2022/06/07 00:51:41;;;;;;;13.17;7.10;;;12.80;99.90;;;;;;5075516;28;20283;-81
2022/06/07 00:54:07;;;;;;;11.40;6.70;;;12.80;99.90;;;;;;5075287;28;20790;-81
2022/06/07 00:56:33;;;;;;;15.33;7.67;;;12.80;99.90;;;;;;5075302;28;20283;-81
2022/06/07 00:59:03;;;;;;;11.67;7.47;;;12.80;99.90;;;;;;5075318;28;20492;-81
2022/06/07 01:01:30;;;;;;;15.90;7.53;;;12.80;99.90;;;;;;5057737;28;20076;-81
2022/06/07 01:03:56;;;;;;;12.57;7.70;;;12.80;99.90;;;;;;5075478;28;20286;-80
2022/06/07 01:11:50;;;;;;;11.30;7.97;;;12.80;99.90;;;;;;5075500;28;20294;-81
2022/06/07 01:14:16;;;;;;;17.53;8.70;;;12.80;99.90;;;;;;5057589;28;20274;-81
2022/06/07 01:16:42;;;;;;;19.33;8.53;;;12.80;99.90;;;;;;5075009;28;20051;-81
2022/06/07 01:19:08;;;;;;;13.90;7.20;;;12.80;99.90;;;;;;5075348;28;20127;-81
2022/06/07 01:21:36;;;;;;;18.60;8.70;;;12.80;99.90;;;;;;5074883;28;20044;-81
2022/06/07 01:24:02;;;;;;;20.30;8.87;;;12.80;99.90;;;;;;5074917;28;20090;-81
2022/06/07 01:26:28;;;;;;;13.20;7.57;;;12.80;99.90;;;;;;5074914;28;20624;-81
2022/06/07 01:28:54;;;;;;;13.40;7.70;;;12.80;99.90;;;;;;5074937;28;20279;-81
2022/06/07 01:31:19;;;;;;;12.47;7.90;;;12.80;99.90;;;;;;5075008;28;20279;-81
2022/06/07 01:33:45;;;;;;;14.47;8.23;;;12.80;99.90;;;;;;5074570;28;20053;-81
2022/06/07 01:36:15;;;;;;;15.07;7.67;;;12.80;99.90;;;;;;5056406;28;20396;-80
2022/06/07 01:38:43;;;;;;;12.47;7.57;;;12.90;99.90;;;;;;5074470;28;20427;-81
2022/06/07 01:43:55;;;;;;;17.40;8.50;;;12.90;99.90;;;;;;5057175;28;20374;-81
2022/06/07 01:46:21;;;;;;;14.67;8.37;;;12.90;99.90;;;;;;5074622;28;20129;-81
2022/06/07 01:48:48;;;;;;;12.87;8.07;;;12.90;99.90;;;;;;5074308;28;20275;-81
2022/06/07 01:51:15;;;;;;;16.47;8.50;;;12.90;99.90;;;;;;5074446;28;20639;-81
2022/06/07 01:53:43;;;;;;;11.97;8.40;;;12.90;99.90;;;;;;5074263;28;20283;-81
2022/06/07 01:56:11;;;;;;;13.17;8.20;;;12.90;99.90;;;;;;5074292;28;20793;-81
2022/06/07 01:58:39;;;;;;;14.70;8.47;;;12.90;99.90;;;;;;5074021;28;20659;-81
2022/06/07 02:01:05;;;;;;;15.13;7.73;;;12.90;99.90;;;;;;5074270;28;20772;-81
2022/06/07 02:03:32;;;;;;;15.30;7.90;;;12.90;99.90;;;;;;5073947;28;20275;-81
2022/06/07 02:06:00;;;;;;;10.90;7.27;;;12.90;99.90;;;;;;5074336;28;20749;-81
2022/06/07 02:08:26;;;;;;;15.23;7.57;;;12.90;99.90;;;;;;5074003;28;20275;-79
2022/06/07 02:10:53;;;;;;;13.23;8.77;;;12.90;99.90;;;;;;5074414;28;20279;-80
2022/06/07 02:13:19;;;;;;;15.17;8.80;;;12.90;99.90;;;;;;5074165;28;20285;-80
2022/06/07 02:15:46;;;;;;;14.03;8.90;;;12.90;99.90;;;;;;5073799;28;20283;-80
2022/06/07 02:18:12;;;;;;;13.27;8.37;;;12.90;99.90;;;;;;5056157;28;20393;-80
2022/06/07 02:20:38;;;;;;;15.40;9.13;;;12.90;99.90;;;;;;5073834;28;20358;-80
2022/06/07 02:23:05;;;;;;;15.90;8.97;;;12.90;99.90;;;;;;5073974;28;20282;-80
2022/06/07 02:25:37;;;;;;;15.63;8.67;;;12.90;99.90;;;;;;5073699;28;20369;-80
2022/06/07 02:28:04;;;;;;;14.90;8.60;;;12.90;99.90;;;;;;5074071;28;20694;-80
2022/06/07 02:30:30;;;;;;;16.27;10.07;;;12.90;99.90;;;;;;5055723;28;20697;-80
2022/06/07 02:32:56;;;;;;;16.87;9.13;;;12.90;99.90;;;;;;5073557;28;20279;-80
2022/06/07 02:35:22;;;;;;;12.23;8.20;;;12.90;99.90;;;;;;5073738;28;20048;-81
2022/06/07 02:37:48;;;;;;;15.87;8.50;;;13.00;99.90;;;;;;5073471;28;20088;-80
2022/06/07 02:40:14;;;;;;;16.20;8.63;;;13.00;99.90;;;;;;5073628;28;20330;-81
2022/06/07 02:42:39;;;;;;;18.93;9.07;;;13.00;99.90;;;;;;5073308;28;20048;-81
2022/06/07 02:45:05;;;;;;;15.13;8.80;;;13.00;99.90;;;;;;5073380;28;20110;-81
2022/06/07 02:47:31;;;;;;;14.93;8.17;;;12.90;99.90;;;;;;5072230;28;20484;-80
2022/06/07 02:49:57;;;;;;;15.47;8.93;;;13.00;99.90;;;;;;5073511;28;20283;-81
2022/06/07 02:52:23;;;;;;;15.70;8.93;;;13.00;99.90;;;;;;5073415;28;20048;-80
2022/06/07 02:54:48;;;;;;;13.73;9.27;;;13.00;99.90;;;;;;5055388;28;20044;-81
2022/06/07 02:57:15;;;;;;;14.63;8.83;;;13.00;99.90;;;;;;5073558;28;20040;-81
2022/06/07 02:59:40;;;;;;;11.90;8.13;;;13.00;99.90;;;;;;5072964;28;20106;-81
2022/06/07 03:02:06;;;;;;;15.23;8.60;;;13.00;99.90;;;;;;5073005;28;20754;-81
2022/06/07 03:04:33;;;;;;;13.60;8.37;;;12.90;99.90;;;;;;5073117;28;20524;-78
2022/06/07 03:07:00;;;;;;;15.40;7.43;;;13.00;99.90;;;;;;5055529;28;20504;-81
2022/06/07 03:09:27;;;;;;;11.93;6.73;;;12.90;99.90;;;;;;5073096;28;20278;-81
2022/06/07 03:11:52;;;;;;;12.43;6.63;;;13.00;99.90;;;;;;5072732;28;20282;-81
2022/06/07 03:14:18;;;;;;;15.07;7.20;;;13.00;99.90;;;;;;5073074;28;20279;-81
2022/06/07 03:16:44;;;;;;;14.10;6.87;;;13.00;99.90;;;;;;5072523;28;20067;-81
2022/06/07 03:19:10;;;;;;;12.57;6.20;;;13.00;99.90;;;;;;5073056;28;20357;-81
2022/06/07 03:21:37;;;;;;;14.40;6.67;;;13.00;99.90;;;;;;5072695;28;20052;-80
2022/06/07 03:24:03;;;;;;;12.40;6.87;;;12.90;99.90;;;;;;5073073;28;20048;-80
2022/06/07 03:26:29;;;;;;;15.67;7.37;;;12.90;99.90;;;;;;5072830;28;20289;-81
2022/06/07 03:28:55;;;;;;;12.50;6.93;;;12.90;99.90;;;;;;5072389;28;20770;-81
2022/06/07 03:31:21;;;;;;;17.23;7.43;;;12.90;99.90;;;;;;5072627;28;20328;-81
2022/06/07 03:33:47;;;;;;;15.37;8.40;;;12.80;99.90;;;;;;5072491;28;20078;-80
2022/06/07 03:36:28;;;;;;;16.97;7.80;;;12.70;99.90;;;;;;5038128;28;20421;-80
2022/06/07 03:38:56;;;;;;;14.60;8.03;;;12.70;99.90;;;;;;5072450;28;20444;-80
2022/06/07 03:41:26;;;;;;;17.23;8.43;;;12.60;99.90;;;;;;5072701;28;20275;-81
2022/06/07 03:43:52;;;;;;;13.30;7.40;;;12.60;99.90;;;;;;5072221;28;20285;-80
2022/06/07 03:46:22;;;;;;;15.40;7.00;;;12.60;99.90;;;;;;5055371;28;20638;-80
2022/06/07 03:48:48;;;;;;;17.00;7.70;;;12.50;99.90;;;;;;5072535;28;20357;-80
2022/06/07 03:51:15;;;;;;;15.40;7.30;;;12.50;99.90;;;;;;5055131;28;20703;-79
2022/06/07 03:53:41;;;;;;;17.97;8.33;;;12.50;99.90;;;;;;5072371;28;20404;-79
2022/06/07 03:56:08;;;;;;;15.83;7.73;;;12.50;99.90;;;;;;5054872;28;20287;-79
2022/06/07 03:58:34;;;;;;;17.43;7.27;;;12.40;99.90;;;;;;5055131;28;20705;-79
2022/06/07 04:01:01;;;;;;;16.53;8.03;;;12.40;99.90;;;;;;5076299;28;20286;-78
2022/06/07 04:03:28;;;;;;;14.37;7.57;;;12.40;99.90;;;;;;5076510;28;20279;-78
2022/06/07 04:05:55;;;;;;;12.57;7.40;;;12.40;99.90;;;;;;5076159;28;20319;-78
2022/06/07 04:08:21;;;;;;;19.07;8.17;;;12.40;99.90;;;;;;5058663;28;20290;-78
2022/06/07 04:10:50;;;;;;;17.73;7.70;;;12.30;99.90;;;;;;5076034;28;20289;-77
2022/06/07 04:13:17;;;;;;;20.13;8.03;;;12.40;99.90;;;;;;5076548;28;20283;-77
2022/06/07 04:15:44;;;;;;;16.20;7.90;;;12.40;99.90;;;;;;5075987;28;20778;-77
2022/06/07 04:18:10;;;;;;;15.07;8.20;;;12.40;99.90;;;;;;5076561;28;20643;-77
2022/06/07 04:20:36;;;;;;;14.10;7.83;;;12.40;99.90;;;;;;5058695;28;20295;-77
2022/06/07 04:23:03;;;;;;;18.43;7.97;;;12.40;99.90;;;;;;5075975;28;20282;-77
2022/06/07 04:25:29;;;;;;;14.90;7.60;;;12.50;99.90;;;;;;5076107;28;20274;-77
2022/06/07 04:27:55;;;;;;;16.33;7.27;;;12.50;99.90;;;;;;5058260;28;20277;-76
2022/06/07 04:30:21;;;;;;;14.47;6.57;;;12.50;99.90;;;;;;5058710;28;20655;-77
2022/06/07 04:32:47;;;;;;;13.67;6.50;;;12.50;99.90;;;;;;5075832;28;20477;-76
2022/06/07 04:35:17;;;;;;;15.30;6.67;;;12.50;99.90;;;;;;5076015;28;20052;-76
2022/06/07 04:37:47;;;;;;;17.27;7.33;;;12.50;99.90;;;;;;5075862;28;20310;-75
2022/06/07 04:40:14;;;;;;;17.60;8.33;;;12.50;99.90;;;;;;5075989;28;20315;-76
2022/06/07 04:42:41;;;;;;;15.90;8.30;;;12.50;99.90;;;;;;5075698;28;20887;-77
2022/06/07 04:45:15;;;;;;;16.80;8.40;;;12.60;99.90;;;;;;5075652;28;20298;-77
2022/06/07 04:47:45;;;;;;;20.90;8.73;;;12.60;99.90;;;;;;5058357;28;20626;-76
2022/06/07 04:50:15;;;;;;;13.93;7.70;;;12.60;99.90;;;;;;5075888;28;20613;-76
2022/06/07 04:52:43;;;;;;;14.97;7.60;;;12.50;99.90;;;;;;5075730;28;20275;-77
2022/06/07 04:55:09;;;;;;;14.27;6.13;;;12.60;99.90;;;;;;5075450;28;20279;-76
2022/06/07 04:57:35;;;;;;;14.40;6.47;;;12.60;99.90;;;;;;5075512;28;20872;-76
2022/06/07 05:00:01;;;;;;;17.50;8.03;;;12.60;99.90;;;;;;5075229;28;20456;-76
2022/06/07 05:02:26;;;;;;;13.33;6.23;;;12.60;99.90;;;;;;5075643;28;20122;-76
2022/06/07 05:04:52;;;;;;;12.43;6.57;;;12.60;99.90;;;;;;5075202;28;20080;-75
2022/06/07 05:07:18;;;;;;;17.33;6.50;;;12.60;99.90;;;;;;5075235;28;20490;-76
2022/06/07 05:09:44;;;;;;;17.63;6.53;;;12.60;99.90;;;;;;5074720;28;20052;-76
2022/06/07 05:12:09;;;;;;;14.53;6.47;;;12.60;99.90;;;;;;5074348;28;20515;-76
2022/06/07 05:14:36;;;;;;;12.53;5.63;;;12.50;99.90;;;;;;5075372;28;20091;-77
2022/06/07 05:17:02;;;;;;;19.93;5.90;;;12.60;99.90;;;;;;5075003;28;20048;-76
2022/06/07 05:19:33;;;;;;;14.63;4.80;;;12.60;99.90;;;;;;5074943;28;20306;-77
2022/06/07 05:22:00;;;;;;;11.17;4.77;;;12.60;99.90;;;;;;5074796;28;20097;-77
2022/06/07 05:24:26;;;;;;;12.30;4.40;;;12.60;99.90;;;;;;5075419;28;20306;-77
2022/06/07 05:26:55;;;;;;;11.50;4.37;;;12.60;99.90;;;;;;5074347;28;20275;-77
2022/06/07 05:29:33;;;;;;;11.93;4.43;;;12.60;99.90;;;;;;5075301;28;20275;-77
2022/06/07 05:31:59;;;;;;;11.17;4.43;;;12.60;99.90;;;;;;5074656;28;20270;-77
2022/06/07 05:34:24;;;;;;;10.27;3.60;;;12.50;99.90;;;;;;5074713;28;20828;-78
2022/06/07 05:36:50;;;;;;;11.93;4.23;;;12.60;99.90;;;;;;5089274;28;20062;-77
2022/06/07 05:39:22;;;;;;;13.83;4.20;;;12.60;99.90;;;;;;5115406;28;20047;-77
2022/06/07 05:41:48;;;;;;;10.33;3.70;;;12.60;99.90;;;;;;5097386;28;20075;-78
2022/06/07 05:44:14;;;;;;;11.30;3.70;;;12.60;99.90;;;;;;5115029;28;20280;-76
2022/06/07 05:46:40;;;;;;;9.63;3.80;;;12.60;99.90;;;;;;5115203;28;20768;-76
2022/06/07 05:49:06;;;;;;;11.77;4.03;;;12.60;99.90;;;;;;5115066;28;20031;-76
2022/06/07 05:51:32;;;;;;;11.40;4.10;;;12.50;99.90;;;;;;5115214;28;20295;-70
2022/06/07 05:53:58;;;;;;;12.10;4.97;;;12.60;99.90;;;;;;5115014;28;20116;-77
2022/06/07 05:56:23;;;;;;;10.80;4.40;;;12.60;99.90;;;;;;5115308;28;20086;-77
2022/06/07 05:58:49;;;;;;;15.30;4.37;;;12.60;99.90;;;;;;5096969;28;20102;-81
2022/06/07 06:01:17;;;;;;;11.77;4.80;;;12.50;99.90;;;;;;5114596;28;20514;-81
2022/06/07 06:03:43;;;;;;;14.10;5.20;;;12.50;99.90;;;;;;5115237;28;20062;-81
2022/06/07 06:06:10;;;;;;;13.40;4.40;;;12.50;99.90;;;;;;5114707;28;20840;-81
2022/06/07 06:11:27;;;;;;;9.67;3.43;;;12.50;99.90;;;;;;5085450;28;20296;-76
2022/06/07 06:13:53;;;;;;;10.03;3.30;;;12.50;99.90;;;;;;5114641;28;20437;-75
2022/06/07 06:16:21;;;;;;;10.83;2.97;;;12.50;99.90;;;;;;5114357;28;20776;-77
2022/06/07 06:18:49;;;;;;;9.03;2.80;;;12.50;99.90;;;;;;5114596;28;20123;-79
2022/06/07 06:21:16;;;;;;;9.33;2.37;;;12.50;99.90;;;;;;5114384;28;20317;-79
2022/06/07 06:23:43;;;;;;;7.40;2.43;;;12.50;99.90;;;;;;5095631;28;20292;-78
2022/06/07 06:26:14;;;;;;;10.00;2.33;;;12.50;99.90;;;;;;5113624;28;20356;-78
2022/06/07 06:28:40;;;;;;;10.07;2.70;;;12.50;99.90;;;;;;5115033;28;20279;-79
2022/06/07 06:31:08;;;;;;;10.53;2.53;;;12.50;99.90;;;;;;5114395;28;20330;-79
2022/06/07 06:33:44;;;;;;;12.30;2.70;;;12.60;99.90;;;;;;5114457;28;20302;-79
2022/06/07 06:36:13;;;;;;;11.67;2.67;;;12.60;99.90;;;;;;5079102;28;20354;-78
2022/06/07 06:38:39;;;;;;;8.60;2.77;;;12.60;99.90;;;;;;5114312;28;20302;-79
2022/06/07 06:41:15;;;;;;;13.10;2.77;;;12.60;99.90;;;;;;5113979;28;20828;-79
2022/06/07 06:43:41;;;;;;;14.43;2.77;;;12.60;99.90;;;;;;5096388;28;20289;-79
2022/06/07 06:46:18;;;;;;;11.17;2.10;;;12.60;99.90;;;;;;5096103;28;20282;-79
2022/06/07 06:48:44;;;;;;;13.43;3.07;;;12.70;99.90;;;;;;5114506;28;20278;-79
2022/06/07 06:51:12;;;;;;;12.03;2.40;;;12.70;99.90;;;;;;5113982;28;20274;-78
2022/06/07 06:53:41;;;;;;;12.50;3.40;;;12.70;99.90;;;;;;5114030;28;20364;-79
2022/06/07 06:56:07;;;;;;;8.67;2.83;;;12.70;99.90;;;;;;5114045;28;20792;-79
2022/06/07 06:58:33;;;;;;;12.33;2.70;;;12.70;99.90;;;;;;5114000;28;20298;-78
2022/06/07 07:01:04;;;;;;;9.80;2.77;;;12.70;99.90;;;;;;5114084;28;20284;-79
2022/06/07 07:03:30;;;;;;;12.93;2.43;;;12.90;99.90;;;;;;5113991;28;20050;-79
2022/06/07 07:05:56;;;;;;;9.47;2.77;;;12.90;99.90;;;;;;5113746;28;20277;-78
2022/06/07 07:08:25;;;;;;;9.30;2.40;;;13.00;99.90;;;;;;5113546;28;20761;-78
2022/06/07 07:11:15;;;;;;;10.93;2.77;;;13.10;99.90;;;;;;5114182;28;20278;-78
2022/06/07 07:13:42;;;;;;;11.83;2.57;;;13.20;99.90;;;;;;5114048;28;20286;-79
2022/06/07 07:16:10;;;;;;;12.53;2.63;;;13.30;99.90;;;;;;5095649;28;20319;-78
2022/06/07 07:18:36;;;;;;;10.83;2.43;;;13.30;99.90;;;;;;5113484;28;20315;-79
2022/06/07 07:21:07;;;;;;;13.17;2.73;;;13.40;99.90;;;;;;5113623;28;20274;-78
2022/06/07 07:23:33;;;;;;;12.07;2.97;;;13.50;99.90;;;;;;5113949;28;20047;-79
2022/06/07 07:26:09;;;;;;;10.03;2.30;;;13.50;99.90;;;;;;5113582;28;20277;-79
2022/06/07 07:28:38;;;;;;;12.47;2.77;;;13.70;99.90;;;;;;5113521;28;20807;-79
2022/06/07 07:31:06;;;;;;;10.13;2.20;;;13.80;99.90;;;;;;5095213;28;20297;-78
2022/06/07 07:33:33;;;;;;;7.90;2.37;;;13.90;99.90;;;;;;5113205;28;20285;-79
2022/06/07 07:36:05;;;;;;;9.17;2.10;;;14.00;99.90;;;;;;5113372;28;20313;-78
2022/06/07 07:38:31;;;;;;;7.67;2.43;;;14.00;99.90;;;;;;5113539;28;20392;-78
2022/06/07 07:40:57;;;;;;;7.63;1.97;;;14.00;99.90;;;;;;5113796;28;20281;-79
2022/06/07 07:43:23;;;;;;;8.13;2.17;;;14.10;99.90;;;;;;5113136;28;20791;-78
2022/06/07 07:45:53;;;;;;;8.90;2.27;;;14.10;99.90;;;;;;5113315;28;20048;-79
2022/06/07 07:48:20;;;;;;;9.97;2.70;;;14.10;99.90;;;;;;5113295;28;20043;-79
2022/06/07 07:50:46;;;;;;;10.90;2.50;;;14.20;99.90;;;;;;5113364;28;20796;-79
2022/06/07 07:53:12;;;;;;;12.17;2.50;;;14.20;99.90;;;;;;5113144;28;20277;-79
2022/06/07 07:55:45;;;;;;;10.13;2.20;;;14.30;99.90;;;;;;5113193;28;20280;-78
2022/06/07 07:58:12;;;;;;;11.27;2.40;;;14.40;99.90;;;;;;5112839;28;20289;-79
2022/06/07 08:00:42;;;;;;;10.97;2.30;;;;;;;;;;5095552;28;20308;-79
2022/06/07 08:03:08;;;;;;;9.83;2.40;;;;;;;;;;5113149;28;20290;-78
2022/06/07 08:05:34;;;;;;;9.33;2.20;;;;;;;;;;5113286;28;20281;-79
2022/06/07 08:07:59;;;;;;;11.23;2.97;;;14.70;99.90;;;;;;5095278;28;20290;-79
2022/06/07 08:10:25;;;;;;;10.37;2.57;;;14.70;99.90;;;;;;5112811;28;20295;-79
2022/06/07 08:12:51;;;;;;;11.40;2.70;;;14.60;99.90;;;;;;5112978;28;20384;-80
2022/06/07 08:15:20;;;;;;;9.77;2.67;;;14.70;99.90;;;;;;5112971;28;20364;-79
2022/06/07 08:17:46;;;;;;;8.50;2.20;;;14.70;99.90;;;;;;5095119;28;20459;-79
2022/06/07 08:20:13;;;;;;;11.80;2.50;;;14.70;99.90;;;;;;5094842;28;20313;-78
2022/06/07 08:22:38;;;;;;;11.10;2.97;;;14.80;99.90;;;;;;5113137;28;20051;-79
2022/06/07 08:25:10;;;;;;;11.73;2.83;;;14.80;99.90;;;;;;5112842;28;20278;-79
2022/06/07 08:27:39;;;;;;;9.53;2.93;;;14.80;99.90;;;;;;5095471;28;20065;-79
2022/06/07 08:30:06;;;;;;;13.07;2.60;;;14.80;99.90;;;;;;5113164;28;20288;-79
2022/06/07 08:32:32;;;;;;;13.70;3.17;;;14.80;99.90;;;;;;5112714;28;20278;-79
2022/06/07 08:37:43;;;;;;;17.67;3.43;;;14.70;99.90;;;;;;5112518;28;20312;-79
2022/06/07 08:40:15;;;;;;;15.50;2.60;;;;;;;;;;5112983;28;20342;-78
2022/06/07 08:42:48;;;;;;;12.77;2.43;;;;;;;;;;5095040;28;20048;-78
2022/06/07 08:45:17;;;;;;;13.47;3.00;;;;;;;;;;5112677;28;20134;-79
2022/06/07 08:47:54;;;;;;;12.67;2.87;;;;;;;;;;5116349;28;20687;-79
2022/06/07 08:50:31;;;;;;;12.97;2.73;;;14.80;99.90;;;;;;5116232;28;20280;-80
2022/06/07 08:53:01;;;;;;;13.03;3.53;;;14.80;99.90;;;;;;5116437;28;20350;-79
2022/06/07 08:55:32;;;;;;;11.80;3.03;;;14.90;99.90;;;;;;5116111;28;20289;-79
2022/06/07 08:58:20;;;;;;;11.47;2.43;;;15.00;99.90;;;;;;5116391;28;20040;-79
2022/06/07 09:00:59;;;;;;;13.27;2.80;;;15.70;99.90;;;;;;5098107;28;20060;-79
2022/06/07 09:03:54;;;;;;;15.97;2.67;;;;;;;;;;5115949;28;20914;-79
2022/06/07 09:06:29;;;;;;;18.00;3.83;;;16.10;99.90;;;;;;5076681;28;20095;-79
2022/06/07 09:08:58;;;;;;;9.52;2.35;;;16.10;99.90;;;;;;5115975;28;20521;-80
2022/06/07 09:14:17;;;;;;;12.93;2.80;;;;;;;;;;5116118;28;20055;-79
2022/06/07 09:16:43;;;;;;;11.83;2.47;;;;;;;;;;5116082;28;20044;-79
2022/06/07 09:19:15;;;;;;;13.80;3.60;;;;;;;;;;5115820;28;20070;-79
2022/06/07 09:21:43;;;;;;;11.10;2.43;;;;;;;;;;5116169;28;20043;-79
2022/06/07 09:24:11;;;;;;;9.47;2.50;;;;;;;;;;5116071;28;20053;-79
2022/06/07 09:26:38;;;;;;;6.93;1.80;;;;;;;;;;5115592;28;20047;-79
2022/06/07 09:29:07;;;;;;;8.30;1.90;;;;;;;;;;5115774;28;20118;-79
2022/06/07 09:31:37;;;;;;;9.00;2.10;;;;;;;;;;5097556;28;20051;-79
2022/06/07 09:34:04;;;;;;;9.27;2.00;;;;;;;;;;5115637;28;20124;-79
2022/06/07 09:36:33;;;;;;;8.87;2.07;;;;;;;;;;5115386;28;20055;-79
2022/06/07 09:39:03;;;;;;;14.60;2.07;;;;;;;;;;5115576;28;20479;-79
2022/06/07 09:41:37;;;;;;;8.63;1.90;;;;;;;;;;5114991;28;20043;-79
2022/06/07 09:44:06;;;;;;;7.53;1.83;;;;;;;;;;5115438;28;20427;-79
2022/06/07 09:46:32;;;;;;;8.37;1.90;;;;;;;;;;5115187;28;20135;-78
2022/06/07 09:48:59;;;;;;;8.77;1.90;;;;;;;;;;5115576;28;20036;-79
2022/06/07 09:51:27;;;;;;;11.47;1.83;;;;;;;;;;5114869;28;20091;-78
2022/06/07 09:53:55;;;;;;;8.97;1.87;;;;;;;;;;5115161;28;20047;-78
2022/06/07 09:56:21;;;;;;;7.77;2.00;;;;;;;;;;5096938;28;20504;-78
2022/06/07 09:59:06;;;;;;;11.47;2.20;;;;;;;;;;5115111;28;20433;-78
2022/06/07 10:01:47;;;;;;;14.73;3.10;;;;;;;;;;5115051;28;20048;-78
2022/06/07 10:04:23;;;;;;;12.30;3.07;;;;;;;;;;5115054;28;20047;-79
2022/06/07 10:06:57;;;;;;;10.30;2.10;;;;;;;;;;5115183;28;20097;-78
2022/06/07 10:09:27;;;;;;;12.02;2.53;;;;;;;;;;5114207;28;20551;-78
2022/06/07 10:11:56;;;;;;;14.03;2.90;;;;;;;;;;5114675;28;20043;-78
2022/06/07 10:14:45;;;;;;;13.27;2.83;;;;;;;;;;5114783;28;20044;-77
2022/06/07 10:17:30;;;;;;;12.20;2.43;;;;;;;;;;5114630;28;20513;-79
2022/06/07 10:20:08;;;;;;;11.70;2.58;;;;;;;;;;5114636;28;20057;-78
2022/06/07 10:22:45;;;;;;;14.87;2.80;;;;;;;;;;5096690;28;20068;-78
2022/06/07 10:25:21;;;;;;;12.50;2.80;;;;;;;;;;5114737;28;20048;-78
2022/06/07 10:27:50;;;;;;;13.40;2.47;;;;;;;;;;5114370;28;20051;-78
2022/06/07 10:30:19;;;;;;;10.60;2.43;;;;;;;;;;5114558;28;20044;-78
2022/06/07 10:33:08;;;;;;;7.43;1.80;;;;;;;;;;5114580;28;20128;-78
2022/06/07 10:35:58;;;;;;;8.47;1.60;;;;;;;;;;5114013;28;20101;-78
2022/06/07 10:38:30;;;;;;;6.17;1.80;;;;;;;;;;5096357;28;20086;-78
2022/06/07 10:41:11;;;;;;;8.00;2.07;;;;;;;;;;5114579;28;20090;-78
2022/06/07 10:43:53;;;;;;;7.20;1.43;;;;;;;;;;5114050;28;20087;-78
2022/06/07 10:46:20;;;;;;;6.03;1.87;;;;;;;;;;5114267;28;20063;-78
2022/06/07 10:49:10;;;;;;;5.90;1.60;;;;;;;;;;5113955;28;20056;-78
2022/06/07 10:54:31;;;;;;;7.63;1.63;;;;;;;;;;5114386;28;20375;-78
2022/06/07 10:56:57;;;;;;;;;;;;;;;;;;5114456;28;20407;-78
2022/06/07 10:59:26;;;;;;;7.93;1.57;;;;;;;;;;5113851;28;19919;-78
2022/06/07 11:02:15;;;;;;;7.93;2.03;;;;;;;;;;5114217;28;20136;-78
2022/06/07 11:10:37;;;;;;;8.60;1.80;;;;;;;;;;5113205;28;20082;-78
2022/06/07 11:13:21;;;;;;;7.97;1.90;;;;;;;;;;5113882;28;20491;-78
2022/06/07 11:15:51;;;;;;;13.40;2.10;;;;;;;;;;5113612;28;20050;-78
2022/06/07 11:18:20;;;;;;;6.77;2.00;;;;;;;;;;5113594;28;20134;-78
2022/06/07 11:21:01;;;;;;;10.07;1.90;;;;;;;;;;5113712;28;20051;-78
2022/06/07 11:23:31;;;;;;;9.23;2.00;;;;;;;;;;5113757;28;20074;-78
2022/06/07 11:26:09;;;;;;;7.13;2.20;;;;;;;;;;5113515;28;20090;-78
2022/06/07 11:28:40;;;;;;;8.50;1.80;;;;;;;;;;5113387;28;20131;-77
2022/06/07 11:31:16;;;;;;;8.17;1.70;;;;;;;;;;5113690;28;20051;-78
2022/06/07 11:33:48;;;;;;;9.47;2.10;;;;;;;;;;5113361;28;20067;-78
2022/06/07 11:36:14;;;;;;;7.63;2.00;;;;;;;;;;5113150;28;20126;-78
2022/06/07 11:38:52;;;;;;;8.10;2.60;;;;;;;;;;5113088;28;20043;-77
2022/06/07 11:41:36;;;;;;;9.53;2.73;;;;;;;;;;5113280;28;20054;-78
2022/06/07 11:44:04;;;;;;;9.93;2.40;;;;;;;;;;5113657;28;20069;-78
2022/06/07 11:46:36;;;;;;;15.57;2.57;;;;;;;;;;5112574;28;20051;-78
2022/06/07 11:49:20;;;;;;;13.93;2.67;;;;;;;;;;5113393;28;20399;-77
2022/06/07 11:52:05;;;;;;;10.70;2.93;;;;;;;;;;5112311;28;20117;-77
2022/06/07 11:54:32;;;;;;;12.15;2.30;;;;;;;;;;5112338;28;20289;-77
2022/06/07 11:57:18;;;;;;;7.77;1.90;;;16.70;99.90;;;;;;5112510;28;20054;-78
2022/06/07 11:59:46;;;;;;;12.27;2.90;;;16.70;99.90;;;;;;5113055;28;20508;-78
2022/06/07 12:02:15;;;;;;;8.77;2.03;;;16.60;99.90;;;;;;5113124;28;20048;-78
2022/06/07 12:04:40;;;;;;;6.53;2.00;;;16.50;99.90;;;;;;5112793;28;20419;-78
2022/06/07 12:07:11;;;;;;;11.40;2.37;;;16.40;99.90;;;;;;5113122;28;20055;-78
2022/06/07 12:09:38;;;;;;;8.57;1.97;;;16.40;99.90;;;;;;5113054;28;20046;-77
2022/06/07 12:12:31;;;;;;;10.40;2.00;;;16.40;99.90;;;;;;5113215;28;20426;-78
2022/06/07 12:15:39;;;;;;;9.90;2.07;;;16.40;99.90;;;;;;5113087;28;20047;-78
2022/06/07 12:18:16;;;;;;;8.20;2.17;;;16.50;99.90;;;;;;5010524;28;20046;-78
2022/06/07 12:20:43;;;;;;;7.13;1.70;;;16.50;99.90;;;;;;5012703;28;20050;-78
2022/06/07 12:23:28;;;;;;;9.70;2.10;;;16.50;99.90;;;;;;5073701;28;20403;-78
2022/06/07 12:25:57;;;;;;;8.25;1.90;;;16.60;99.90;;;;;;5116963;28;20044;-78
2022/06/07 12:28:27;;;;;;;8.73;2.20;;;16.70;99.90;;;;;;5116988;28;20065;-78
2022/06/07 12:30:53;;;;;;;7.07;1.87;;;16.80;99.90;;;;;;5116738;28;20098;-78
2022/06/07 12:33:28;;;;;;;9.57;2.30;;;16.80;99.90;;;;;;5116748;28;20051;-78
2022/06/07 12:35:59;;;;;;;6.67;2.23;;;16.80;99.90;;;;;;5116732;28;20046;-78
2022/06/07 12:38:26;;;;;;;11.07;2.70;;;16.70;99.90;;;;;;5116790;28;20480;-79
2022/06/07 12:41:03;;;;;;;9.00;2.10;;;16.60;99.90;;;;;;5116510;28;20059;-78
2022/06/07 12:43:38;;;;;;;10.13;2.37;;;16.60;99.90;;;;;;5116848;28;20048;-78
2022/06/07 12:46:16;;;;;;;7.53;2.00;;;16.60;99.90;;;;;;5116919;28;20079;-78
2022/06/07 12:48:42;;;;;;;9.40;2.33;;;16.60;99.90;;;;;;5116793;28;20130;-77
2022/06/07 12:51:24;;;;;;;9.67;2.00;;;16.60;99.90;;;;;;5116649;28;20122;-78
2022/06/07 12:53:51;;;;;;;8.70;2.43;;;;;;;;;;5116413;28;20047;-77
2022/06/07 12:56:18;;;;;;;9.17;3.17;;;;;;;;;;5116314;28;20043;-78
2022/06/07 12:58:47;;;;;;;8.40;2.17;;;;;;;;;;5116165;28;20093;-77
2022/06/07 13:01:35;;;;;;;7.60;1.90;;;17.10;99.90;;;;;;5116468;28;20094;-78
2022/06/07 13:04:22;;;;;;;10.30;2.00;;;17.20;99.90;;;;;;5116169;28;20058;-78
2022/06/07 13:07:07;;;;;;;9.87;2.10;;;17.20;99.90;;;;;;5115950;28;20051;-78
2022/06/07 13:09:33;;;;;;;8.20;2.40;;;17.40;99.90;;;;;;5116385;28;20078;-78
2022/06/07 13:12:00;;;;;;;8.40;2.23;;;17.30;99.90;;;;;;5116041;28;20047;-78
2022/06/07 13:14:26;;;;;;;7.43;1.90;;;17.40;99.90;;;;;;5116189;28;20450;-78
2022/06/07 13:16:53;;;;;;;9.43;2.70;;;17.30;99.90;;;;;;5097896;28;20395;-78
2022/06/07 13:19:24;;;;;;;10.23;2.97;;;17.30;99.90;;;;;;5115734;28;20036;-78
2022/06/07 13:21:58;;;;;;;7.23;1.73;;;17.30;99.90;;;;;;5116047;28;20135;-79
2022/06/07 13:24:37;;;;;;;13.37;2.67;;;17.20;99.90;;;;;;5116211;28;20056;-79
2022/06/07 13:27:05;;;;;;;9.30;2.47;;;17.10;99.90;;;;;;5115339;28;20510;-78
2022/06/07 13:29:36;;;;;;;6.07;1.70;;;17.00;99.90;;;;;;5115623;28;20048;-77
2022/06/07 13:32:22;;;;;;;7.63;2.53;;;17.00;99.90;;;;;;5114967;28;20039;-78
2022/06/07 13:35:06;;;;;;;8.30;2.20;;;17.00;99.90;;;;;;5115616;28;20105;-77
2022/06/07 13:37:32;;;;;;;8.70;2.30;;;16.90;99.90;;;;;;5115692;28;20058;-78
2022/06/07 13:40:21;;;;;;;8.93;2.70;;;16.90;99.90;;;;;;5115311;28;20388;-77